Desert Aire, WA

3:31 AM PDT on September 16, 2014 (GMT -0700)
Vagabond Aaf / Yakim | Change Station
CLOSE
Current Station
Airport
Location: Vagabond Aaf / Yakim,
Elevation: 1371 ft
Nearby Weather Stations

Elev 1371 ft 46.67 °N, 120.45 °W | Updated 35 minutes ago

Partly Cloudy
Partly Cloudy
59 °F
Feels Like 59 °F
N
6
Wind Variable Wind from East

Today
High -- | Low -- °F
--% Chance of Precip.
Yesterday
High -- | Low -- °F
Precip. -- in
6:38 AM 7:09 PM
Waning Gibbous, 47% visible
Pressure 29.89 in
Visibility 10.0 miles
Clouds Scattered Clouds 14000 ft
Dew Point 30 °F
Humidity 34%
Rainfall 0.00 in
Snow Depth 0 in , 0 in , 0 in
UV 0 out of 12
Pollen 2.70 out of 12
Air Quality Not available.
Flu Activity Not available.
METAR K1YT 160956Z AUTO 10005KT 10SM SCT140 15/M01 A2989 RMK AO2 SLPNO T01491010

More Conditions Fewer Conditions

Pressure 29.89 in
Visibility 10.0 miles
Clouds Scattered Clouds 14000 ft
Dew Point 30 °F
Humidity 34%
Rainfall 0.00 in
Snow Depth 0 in , 0 in , 0 in
UV 0 out of 12
Pollen 2.70 out of 12
Air Quality Not available.
Flu Activity Not available.
METAR K1YT 160956Z AUTO 10005KT 10SM SCT140 15/M01 A2989 RMK AO2 SLPNO T01491010

More Conditions Fewer Conditions

10-Day Weather Forecast

Almanac

Astronomy

Sep. 16, 2014 Rise Set
Actual Time 6:38 AM PDT 7:09 PM PDT
Civil Twilight 6:08 AM PDT 7:39 PM PDT
Nautical Twilight 5:32 AM PDT 8:15 PM PDT
Astronomical Twilight 4:54 AM PDT 8:52 PM PDT
Moon No Moon Rise 2:52 PM PDT
Length of Visible Light 13h 31m
Length of Day
12h 30m
Tomorrow will be 3m 17s shorter.
Waning Gibbous, 47% of the Moon is Illuminated
Today
Waning Gibbous
Sep 24
New
Oct 1
First Quarter
Oct 8
Full
Oct 15
Last Quarter

Today's Extremes

State Highs State Lows

Community

WunderPhotos

Upload Photos

1,753,720 photos uploaded!

WunderBlogs® & News

Nearby

Snow Depth

Station Depth Elevation
Rainy Pass 0 in 4780 ft
Spruce Springs 0 in 5700 ft
Spencer Meadow 0 in 3400 ft
Beaver Pass 1 in 3620 ft
Fish Lake 0 in 3371 ft

Earthquake Activity

City Distance Mag. Time & Date
No recent earthquake activity has been reported nearby.
Minimum magnitude displayed is 2.5.

Coastal Water Temperatures

Place Temperature
No Stations Reporting

Nearby Weather Stations